sensor_id;sensor_type;location;lat;lon;timestamp;temperature;humidity
23618;DHT22;18207;32.078;34.818;2024-03-23T00:52:03;23.40;34.60
23618;DHT22;18207;32.078;34.818;2024-03-23T00:54:30;23.30;34.50
23618;DHT22;18207;32.078;34.818;2024-03-23T00:56:59;23.30;34.50
23618;DHT22;18207;32.078;34.818;2024-03-23T00:59:26;23.30;34.50
23618;DHT22;18207;32.078;34.818;2024-03-23T01:01:55;23.20;34.50
23618;DHT22;18207;32.078;34.818;2024-03-23T01:04:22;23.20;34.60
23618;DHT22;18207;32.078;34.818;2024-03-23T01:06:50;23.20;34.70
23618;DHT22;18207;32.078;34.818;2024-03-23T01:09:19;23.10;34.70
23618;DHT22;18207;32.078;34.818;2024-03-23T01:11:49;23.20;34.80
23618;DHT22;18207;32.078;34.818;2024-03-23T01:14:16;23.10;35.10
23618;DHT22;18207;32.078;34.818;2024-03-23T01:16:44;23.10;34.70
23618;DHT22;18207;32.078;34.818;2024-03-23T01:19:12;23.10;34.70
23618;DHT22;18207;32.078;34.818;2024-03-23T01:21:40;23.10;34.80
23618;DHT22;18207;32.078;34.818;2024-03-23T01:24:07;23.10;34.80
23618;DHT22;18207;32.078;34.818;2024-03-23T01:26:38;23.00;34.80
23618;DHT22;18207;32.078;34.818;2024-03-23T01:29:06;23.00;34.90
23618;DHT22;18207;32.078;34.818;2024-03-23T01:31:34;23.00;34.90
23618;DHT22;18207;32.078;34.818;2024-03-23T01:34:01;23.00;34.90
23618;DHT22;18207;32.078;34.818;2024-03-23T01:36:29;23.00;34.90
23618;DHT22;18207;32.078;34.818;2024-03-23T01:38:57;22.90;34.90
23618;DHT22;18207;32.078;34.818;2024-03-23T01:41:25;22.90;34.90
23618;DHT22;18207;32.078;34.818;2024-03-23T01:43:55;22.90;34.90
23618;DHT22;18207;32.078;34.818;2024-03-23T01:46:24;22.90;35.00
23618;DHT22;18207;32.078;34.818;2024-03-23T01:48:51;22.90;35.10
23618;DHT22;18207;32.078;34.818;2024-03-23T01:51:20;22.90;35.10
23618;DHT22;18207;32.078;34.818;2024-03-23T01:53:47;22.80;35.00
23618;DHT22;18207;32.078;34.818;2024-03-23T01:56:16;22.80;35.00
23618;DHT22;18207;32.078;34.818;2024-03-23T01:58:43;22.80;35.10
23618;DHT22;18207;32.078;34.818;2024-03-23T02:01:13;22.80;35.00
23618;DHT22;18207;32.078;34.818;2024-03-23T02:03:41;22.70;35.00
23618;DHT22;18207;32.078;34.818;2024-03-23T02:06:09;22.70;35.00
23618;DHT22;18207;32.078;34.818;2024-03-23T02:08:37;22.70;35.00
23618;DHT22;18207;32.078;34.818;2024-03-23T02:11:05;22.70;35.10
23618;DHT22;18207;32.078;34.818;2024-03-23T02:13:32;22.70;35.10
23618;DHT22;18207;32.078;34.818;2024-03-23T02:16:01;22.70;35.20
23618;DHT22;18207;32.078;34.818;2024-03-23T02:18:30;22.60;35.10
23618;DHT22;18207;32.078;34.818;2024-03-23T02:20:59;22.60;35.10
23618;DHT22;18207;32.078;34.818;2024-03-23T02:23:28;22.60;35.20
23618;DHT22;18207;32.078;34.818;2024-03-23T02:25:56;22.60;35.20
23618;DHT22;18207;32.078;34.818;2024-03-23T02:28:24;22.50;35.10
23618;DHT22;18207;32.078;34.818;2024-03-23T02:30:52;22.50;35.20
23618;DHT22;18207;32.078;34.818;2024-03-23T02:33:19;22.50;35.30
23618;DHT22;18207;32.078;34.818;2024-03-23T02:35:48;22.50;35.30
23618;DHT22;18207;32.078;34.818;2024-03-23T02:38:16;22.50;35.40
23618;DHT22;18207;32.078;34.818;2024-03-23T02:40:46;22.50;35.40
23618;DHT22;18207;32.078;34.818;2024-03-23T02:43:13;22.50;35.40
23618;DHT22;18207;32.078;34.818;2024-03-23T02:45:42;22.40;35.30
23618;DHT22;18207;32.078;34.818;2024-03-23T02:48:09;22.40;35.30
23618;DHT22;18207;32.078;34.818;2024-03-23T02:50:37;22.40;35.30
23618;DHT22;18207;32.078;34.818;2024-03-23T02:53:04;22.40;35.40
23618;DHT22;18207;32.078;34.818;2024-03-23T02:55:33;22.40;35.40
23618;DHT22;18207;32.078;34.818;2024-03-23T02:58:16;22.40;35.50
23618;DHT22;18207;32.078;34.818;2024-03-23T03:00:45;22.30;35.50
23618;DHT22;18207;32.078;34.818;2024-03-23T03:03:12;22.30;35.40
23618;DHT22;18207;32.078;34.818;2024-03-23T03:05:40;22.30;35.40
23618;DHT22;18207;32.078;34.818;2024-03-23T03:08:07;22.30;35.50
23618;DHT22;18207;32.078;34.818;2024-03-23T03:10:36;22.30;35.50
23618;DHT22;18207;32.078;34.818;2024-03-23T03:13:03;22.30;35.50
23618;DHT22;18207;32.078;34.818;2024-03-23T03:15:33;22.30;35.50
23618;DHT22;18207;32.078;34.818;2024-03-23T03:18:01;22.30;35.50
23618;DHT22;18207;32.078;34.818;2024-03-23T03:20:29;22.20;35.50
23618;DHT22;18207;32.078;34.818;2024-03-23T03:22:58;22.20;35.50
23618;DHT22;18207;32.078;34.818;2024-03-23T03:25:26;22.20;35.60
23618;DHT22;18207;32.078;34.818;2024-03-23T03:27:53;22.20;35.60
23618;DHT22;18207;32.078;34.818;2024-03-23T03:30:22;22.20;35.60
23618;DHT22;18207;32.078;34.818;2024-03-23T03:32:53;22.20;35.60
23618;DHT22;18207;32.078;34.818;2024-03-23T03:35:22;22.20;35.70
23618;DHT22;18207;32.078;34.818;2024-03-23T03:37:49;22.20;35.70
23618;DHT22;18207;32.078;34.818;2024-03-23T03:40:17;22.10;35.70
23618;DHT22;18207;32.078;34.818;2024-03-23T03:42:45;22.10;35.70
23618;DHT22;18207;32.078;34.818;2024-03-23T03:45:15;22.10;35.70
23618;DHT22;18207;32.078;34.818;2024-03-23T03:47:42;22.10;35.80
23618;DHT22;18207;32.078;34.818;2024-03-23T03:50:13;22.10;35.80
23618;DHT22;18207;32.078;34.818;2024-03-23T03:52:40;22.10;35.80
23618;DHT22;18207;32.078;34.818;2024-03-23T03:55:13;22.10;35.80
23618;DHT22;18207;32.078;34.818;2024-03-23T03:57:41;22.10;35.80
23618;DHT22;18207;32.078;34.818;2024-03-23T04:00:11;22.10;35.80
23618;DHT22;18207;32.078;34.818;2024-03-23T04:02:42;22.10;35.80
23618;DHT22;18207;32.078;34.818;2024-03-23T04:05:13;22.10;35.80
23618;DHT22;18207;32.078;34.818;2024-03-23T04:07:40;22.10;35.80
23618;DHT22;18207;32.078;34.818;2024-03-23T04:10:10;22.00;35.70
23618;DHT22;18207;32.078;34.818;2024-03-23T04:12:37;22.10;35.80
23618;DHT22;18207;32.078;34.818;2024-03-23T04:15:06;22.10;35.80
23618;DHT22;18207;32.078;34.818;2024-03-23T04:17:34;22.10;35.80
23618;DHT22;18207;32.078;34.818;2024-03-23T04:20:04;22.00;35.70
23618;DHT22;18207;32.078;34.818;2024-03-23T04:22:37;22.00;35.70
23618;DHT22;18207;32.078;34.818;2024-03-23T04:25:06;22.00;35.80
23618;DHT22;18207;32.078;34.818;2024-03-23T04:27:33;22.00;35.80
23618;DHT22;18207;32.078;34.818;2024-03-23T04:30:02;22.00;35.80
23618;DHT22;18207;32.078;34.818;2024-03-23T04:32:36;22.00;35.80
23618;DHT22;18207;32.078;34.818;2024-03-23T04:35:05;22.00;35.80
23618;DHT22;18207;32.078;34.818;2024-03-23T04:37:37;22.00;35.90
23618;DHT22;18207;32.078;34.818;2024-03-23T04:40:07;22.00;35.90
23618;DHT22;18207;32.078;34.818;2024-03-23T04:42:37;22.00;35.90
23618;DHT22;18207;32.078;34.818;2024-03-23T04:45:06;22.00;36.10
23618;DHT22;18207;32.078;34.818;2024-03-23T04:47:37;22.00;36.10
23618;DHT22;18207;32.078;34.818;2024-03-23T04:50:06;22.00;36.10
23618;DHT22;18207;32.078;34.818;2024-03-23T04:52:38;22.10;36.30
23618;DHT22;18207;32.078;34.818;2024-03-23T04:55:09;22.10;36.30
23618;DHT22;18207;32.078;34.818;2024-03-23T04:57:38;22.10;36.30
23618;DHT22;18207;32.078;34.818;2024-03-23T05:00:07;22.10;36.30
23618;DHT22;18207;32.078;34.818;2024-03-23T05:02:44;22.20;36.40
23618;DHT22;18207;32.078;34.818;2024-03-23T05:05:13;22.20;36.40
23618;DHT22;18207;32.078;34.818;2024-03-23T05:07:42;22.20;36.40
23618;DHT22;18207;32.078;34.818;2024-03-23T05:10:10;22.30;36.50
23618;DHT22;18207;32.078;34.818;2024-03-23T05:12:37;22.30;36.50
23618;DHT22;18207;32.078;34.818;2024-03-23T05:15:06;22.30;36.50
23618;DHT22;18207;32.078;34.818;2024-03-23T05:17:34;22.30;36.50
23618;DHT22;18207;32.078;34.818;2024-03-23T05:20:04;22.30;36.50
23618;DHT22;18207;32.078;34.818;2024-03-23T05:22:36;22.40;36.50
23618;DHT22;18207;32.078;34.818;2024-03-23T05:25:07;22.50;36.50
23618;DHT22;18207;32.078;34.818;2024-03-23T05:27:36;22.50;36.50
23618;DHT22;18207;32.078;34.818;2024-03-23T05:30:05;22.50;36.40
23618;DHT22;18207;32.078;34.818;2024-03-23T05:32:33;22.50;36.50
23618;DHT22;18207;32.078;34.818;2024-03-23T05:35:02;22.60;36.50
23618;DHT22;18207;32.078;34.818;2024-03-23T05:37:29;22.60;36.50
23618;DHT22;18207;32.078;34.818;2024-03-23T05:40:00;22.60;36.60
23618;DHT22;18207;32.078;34.818;2024-03-23T05:42:29;22.70;36.70
23618;DHT22;18207;32.078;34.818;2024-03-23T05:44:58;22.70;36.60
23618;DHT22;18207;32.078;34.818;2024-03-23T05:47:25;22.70;36.70
23618;DHT22;18207;32.078;34.818;2024-03-23T05:49:53;22.80;36.70
23618;DHT22;18207;32.078;34.818;2024-03-23T05:52:21;22.90;36.80
23618;DHT22;18207;32.078;34.818;2024-03-23T05:54:51;22.90;36.70
23618;DHT22;18207;32.078;34.818;2024-03-23T05:57:18;23.00;36.70
23618;DHT22;18207;32.078;34.818;2024-03-23T05:59:49;23.00;36.70
23618;DHT22;18207;32.078;34.818;2024-03-23T06:02:16;23.10;36.70
23618;DHT22;18207;32.078;34.818;2024-03-23T06:04:45;23.10;36.70
23618;DHT22;18207;32.078;34.818;2024-03-23T06:07:13;23.20;36.70
23618;DHT22;18207;32.078;34.818;2024-03-23T06:09:41;23.20;36.70
23618;DHT22;18207;32.078;34.818;2024-03-23T06:12:08;23.30;36.80
23618;DHT22;18207;32.078;34.818;2024-03-23T06:14:37;23.30;36.70
23618;DHT22;18207;32.078;34.818;2024-03-23T06:17:06;23.40;36.80
23618;DHT22;18207;32.078;34.818;2024-03-23T06:19:34;23.40;36.80
23618;DHT22;18207;32.078;34.818;2024-03-23T06:22:02;23.50;36.90
23618;DHT22;18207;32.078;34.818;2024-03-23T06:24:33;23.50;36.90
23618;DHT22;18207;32.078;34.818;2024-03-23T06:27:00;23.50;36.90
23618;DHT22;18207;32.078;34.818;2024-03-23T06:29:28;23.60;37.00
23618;DHT22;18207;32.078;34.818;2024-03-23T06:31:55;23.60;37.00
23618;DHT22;18207;32.078;34.818;2024-03-23T06:34:26;23.70;37.10
23618;DHT22;18207;32.078;34.818;2024-03-23T06:36:53;23.80;37.10
23618;DHT22;18207;32.078;34.818;2024-03-23T06:39:22;23.80;37.10
23618;DHT22;18207;32.078;34.818;2024-03-23T06:41:52;23.90;37.10
23618;DHT22;18207;32.078;34.818;2024-03-23T06:44:21;23.90;37.00
23618;DHT22;18207;32.078;34.818;2024-03-23T06:46:49;24.00;36.90
23618;DHT22;18207;32.078;34.818;2024-03-23T06:49:17;24.00;36.80
23618;DHT22;18207;32.078;34.818;2024-03-23T06:51:52;24.10;36.80
23618;DHT22;18207;32.078;34.818;2024-03-23T06:54:20;24.10;36.70
23618;DHT22;18207;32.078;34.818;2024-03-23T06:56:48;24.20;36.70
23618;DHT22;18207;32.078;34.818;2024-03-23T06:59:16;24.20;36.70
23618;DHT22;18207;32.078;34.818;2024-03-23T07:01:44;24.20;36.70
23618;DHT22;18207;32.078;34.818;2024-03-23T07:04:11;24.30;36.70
23618;DHT22;18207;32.078;34.818;2024-03-23T07:06:43;24.30;36.60
23618;DHT22;18207;32.078;34.818;2024-03-23T07:09:12;24.40;36.60
23618;DHT22;18207;32.078;34.818;2024-03-23T07:11:40;24.50;36.60
23618;DHT22;18207;32.078;34.818;2024-03-23T07:14:08;24.50;36.50
23618;DHT22;18207;32.078;34.818;2024-03-23T07:16:38;24.50;36.40
23618;DHT22;18207;32.078;34.818;2024-03-23T07:19:05;24.60;36.30
23618;DHT22;18207;32.078;34.818;2024-03-23T07:21:34;24.70;36.30
23618;DHT22;18207;32.078;34.818;2024-03-23T07:24:01;24.70;36.20
23618;DHT22;18207;32.078;34.818;2024-03-23T07:26:31;24.80;36.20
23618;DHT22;18207;32.078;34.818;2024-03-23T07:28:58;24.80;36.10
23618;DHT22;18207;32.078;34.818;2024-03-23T07:31:27;24.90;36.00
23618;DHT22;18207;32.078;34.818;2024-03-23T07:33:54;24.90;35.90
23618;DHT22;18207;32.078;34.818;2024-03-23T07:36:22;25.00;35.80
23618;DHT22;18207;32.078;34.818;2024-03-23T07:38:50;25.00;35.80
23618;DHT22;18207;32.078;34.818;2024-03-23T07:41:20;25.10;35.80
23618;DHT22;18207;32.078;34.818;2024-03-23T07:43:49;25.10;35.60
23618;DHT22;18207;32.078;34.818;2024-03-23T07:46:18;25.10;36.20
23618;DHT22;18207;32.078;34.818;2024-03-23T07:48:46;25.10;35.40
23618;DHT22;18207;32.078;34.818;2024-03-23T07:51:17;25.20;35.30
23618;DHT22;18207;32.078;34.818;2024-03-23T07:53:45;25.20;35.30
23618;DHT22;18207;32.078;34.818;2024-03-23T07:56:15;25.20;35.30
23618;DHT22;18207;32.078;34.818;2024-03-23T07:58:44;25.20;35.20
23618;DHT22;18207;32.078;34.818;2024-03-23T08:01:16;25.20;35.20
23618;DHT22;18207;32.078;34.818;2024-03-23T08:03:45;25.20;35.20
23618;DHT22;18207;32.078;34.818;2024-03-23T08:06:14;25.20;35.10
23618;DHT22;18207;32.078;34.818;2024-03-23T08:08:47;25.20;35.10
23618;DHT22;18207;32.078;34.818;2024-03-23T08:11:17;25.20;35.00
23618;DHT22;18207;32.078;34.818;2024-03-23T08:13:45;25.20;34.90
23618;DHT22;18207;32.078;34.818;2024-03-23T08:16:14;25.20;34.90
23618;DHT22;18207;32.078;34.818;2024-03-23T08:18:42;25.20;35.00
23618;DHT22;18207;32.078;34.818;2024-03-23T08:21:10;25.20;35.10
23618;DHT22;18207;32.078;34.818;2024-03-23T08:23:39;25.20;35.20
23618;DHT22;18207;32.078;34.818;2024-03-23T08:26:09;25.20;35.20
23618;DHT22;18207;32.078;34.818;2024-03-23T08:28:38;25.30;35.30
23618;DHT22;18207;32.078;34.818;2024-03-23T08:31:07;25.30;35.20
23618;DHT22;18207;32.078;34.818;2024-03-23T08:33:39;25.30;35.20
23618;DHT22;18207;32.078;34.818;2024-03-23T08:36:09;25.40;35.10
23618;DHT22;18207;32.078;34.818;2024-03-23T08:38:40;25.40;35.00
23618;DHT22;18207;32.078;34.818;2024-03-23T08:41:08;25.50;35.10
23618;DHT22;18207;32.078;34.818;2024-03-23T08:43:38;25.50;35.00
23618;DHT22;18207;32.078;34.818;2024-03-23T08:46:07;25.50;35.00
23618;DHT22;18207;32.078;34.818;2024-03-23T08:48:40;25.60;35.60
23618;DHT22;18207;32.078;34.818;2024-03-23T08:51:10;25.60;34.90
23618;DHT22;18207;32.078;34.818;2024-03-23T08:53:40;25.70;35.00
23618;DHT22;18207;32.078;34.818;2024-03-23T08:56:08;25.70;34.80
23618;DHT22;18207;32.078;34.818;2024-03-23T08:58:38;25.70;34.80
23618;DHT22;18207;32.078;34.818;2024-03-23T09:01:07;25.80;34.90
23618;DHT22;18207;32.078;34.818;2024-03-23T09:03:38;25.80;34.80
23618;DHT22;18207;32.078;34.818;2024-03-23T09:06:07;25.90;34.70
23618;DHT22;18207;32.078;34.818;2024-03-23T09:08:37;25.90;34.70
23618;DHT22;18207;32.078;34.818;2024-03-23T09:11:06;25.90;34.60
23618;DHT22;18207;32.078;34.818;2024-03-23T09:13:35;26.00;34.60
23618;DHT22;18207;32.078;34.818;2024-03-23T09:16:04;26.10;34.60
23618;DHT22;18207;32.078;34.818;2024-03-23T09:18:38;26.10;34.50
23618;DHT22;18207;32.078;34.818;2024-03-23T09:21:11;26.10;34.50
23618;DHT22;18207;32.078;34.818;2024-03-23T09:23:42;26.10;34.40
23618;DHT22;18207;32.078;34.818;2024-03-23T09:26:10;26.20;34.50
23618;DHT22;18207;32.078;34.818;2024-03-23T09:28:38;26.20;34.30
23618;DHT22;18207;32.078;34.818;2024-03-23T09:31:07;26.20;34.30
23618;DHT22;18207;32.078;34.818;2024-03-23T09:33:36;26.30;34.30
23618;DHT22;18207;32.078;34.818;2024-03-23T09:36:05;26.30;34.30
23618;DHT22;18207;32.078;34.818;2024-03-23T09:38:34;26.40;34.40
23618;DHT22;18207;32.078;34.818;2024-03-23T09:41:07;26.40;34.20
23618;DHT22;18207;32.078;34.818;2024-03-23T09:43:36;26.40;34.10
23618;DHT22;18207;32.078;34.818;2024-03-23T09:46:04;26.40;34.10
23618;DHT22;18207;32.078;34.818;2024-03-23T09:48:32;26.40;33.90
23618;DHT22;18207;32.078;34.818;2024-03-23T09:51:02;26.40;33.80
23618;DHT22;18207;32.078;34.818;2024-03-23T09:53:34;26.40;33.80
23618;DHT22;18207;32.078;34.818;2024-03-23T09:56:03;26.40;33.90
23618;DHT22;18207;32.078;34.818;2024-03-23T09:58:32;26.40;33.90
23618;DHT22;18207;32.078;34.818;2024-03-23T10:00:59;26.50;33.90
23618;DHT22;18207;32.078;34.818;2024-03-23T10:03:28;26.50;34.00
23618;DHT22;18207;32.078;34.818;2024-03-23T10:06:03;26.50;34.00
23618;DHT22;18207;32.078;34.818;2024-03-23T10:08:32;26.50;33.90
23618;DHT22;18207;32.078;34.818;2024-03-23T10:11:13;26.50;34.00
23618;DHT22;18207;32.078;34.818;2024-03-23T10:13:43;26.50;33.90
23618;DHT22;18207;32.078;34.818;2024-03-23T10:16:12;26.60;34.10
23618;DHT22;18207;32.078;34.818;2024-03-23T10:18:49;26.60;33.90
23618;DHT22;18207;32.078;34.818;2024-03-23T10:21:19;26.60;33.90
23618;DHT22;18207;32.078;34.818;2024-03-23T10:23:47;26.60;33.80
23618;DHT22;18207;32.078;34.818;2024-03-23T10:26:17;26.60;33.80
23618;DHT22;18207;32.078;34.818;2024-03-23T10:28:57;26.60;33.80
23618;DHT22;18207;32.078;34.818;2024-03-23T10:31:27;26.60;33.70
23618;DHT22;18207;32.078;34.818;2024-03-23T10:33:55;26.70;33.70
23618;DHT22;18207;32.078;34.818;2024-03-23T10:36:25;26.60;33.60
23618;DHT22;18207;32.078;34.818;2024-03-23T10:38:54;26.70;33.60
23618;DHT22;18207;32.078;34.818;2024-03-23T10:41:22;26.70;33.50
23618;DHT22;18207;32.078;34.818;2024-03-23T10:43:54;26.70;33.60
23618;DHT22;18207;32.078;34.818;2024-03-23T10:46:24;26.70;33.50
23618;DHT22;18207;32.078;34.818;2024-03-23T10:48:52;26.70;33.60
23618;DHT22;18207;32.078;34.818;2024-03-23T10:51:20;26.70;33.50
23618;DHT22;18207;32.078;34.818;2024-03-23T10:53:51;26.70;33.50
23618;DHT22;18207;32.078;34.818;2024-03-23T10:56:22;26.70;33.50
23618;DHT22;18207;32.078;34.818;2024-03-23T10:58:51;26.70;33.40
23618;DHT22;18207;32.078;34.818;2024-03-23T11:01:19;26.70;33.30
23618;DHT22;18207;32.078;34.818;2024-03-23T11:03:52;26.60;33.30
23618;DHT22;18207;32.078;34.818;2024-03-23T11:06:35;26.70;33.30
23618;DHT22;18207;32.078;34.818;2024-03-23T11:09:43;26.60;33.20
23618;DHT22;18207;32.078;34.818;2024-03-23T11:12:28;26.60;33.20
23618;DHT22;18207;32.078;34.818;2024-03-23T11:15:02;26.50;33.30
23618;DHT22;18207;32.078;34.818;2024-03-23T11:17:31;26.50;33.30
23618;DHT22;18207;32.078;34.818;2024-03-23T11:20:01;26.50;33.50
23618;DHT22;18207;32.078;34.818;2024-03-23T11:22:42;26.50;34.00
23618;DHT22;18207;32.078;34.818;2024-03-23T11:25:19;26.50;33.30
23618;DHT22;18207;32.078;34.818;2024-03-23T11:27:47;26.60;33.30
23618;DHT22;18207;32.078;34.818;2024-03-23T11:30:18;26.50;33.30
23618;DHT22;18207;32.078;34.818;2024-03-23T11:32:47;26.50;33.10
23618;DHT22;18207;32.078;34.818;2024-03-23T11:35:31;26.50;33.20
23618;DHT22;18207;32.078;34.818;2024-03-23T11:38:10;26.50;33.20
23618;DHT22;18207;32.078;34.818;2024-03-23T11:40:41;26.50;33.30
23618;DHT22;18207;32.078;34.818;2024-03-23T11:43:12;26.50;33.30
23618;DHT22;18207;32.078;34.818;2024-03-23T11:45:43;26.50;33.40
23618;DHT22;18207;32.078;34.818;2024-03-23T11:48:12;26.50;33.50
23618;DHT22;18207;32.078;34.818;2024-03-23T11:50:42;26.50;33.40
23618;DHT22;18207;32.078;34.818;2024-03-23T11:53:15;26.50;33.40
23618;DHT22;18207;32.078;34.818;2024-03-23T11:55:48;26.50;33.50
23618;DHT22;18207;32.078;34.818;2024-03-23T11:58:17;26.40;33.40
23618;DHT22;18207;32.078;34.818;2024-03-23T12:00:52;26.50;33.40
23618;DHT22;18207;32.078;34.818;2024-03-23T12:03:24;26.40;33.30
23618;DHT22;18207;32.078;34.818;2024-03-23T12:05:55;26.40;33.30
23618;DHT22;18207;32.078;34.818;2024-03-23T12:08:28;26.40;33.30
23618;DHT22;18207;32.078;34.818;2024-03-23T12:11:08;26.40;33.30
23618;DHT22;18207;32.078;34.818;2024-03-23T12:13:38;26.40;33.20
23618;DHT22;18207;32.078;34.818;2024-03-23T12:16:12;26.40;33.20
23618;DHT22;18207;32.078;34.818;2024-03-23T12:18:41;26.40;33.20
23618;DHT22;18207;32.078;34.818;2024-03-23T12:21:10;26.30;33.10
23618;DHT22;18207;32.078;34.818;2024-03-23T12:23:39;26.30;33.10
23618;DHT22;18207;32.078;34.818;2024-03-23T12:26:11;26.30;33.20
23618;DHT22;18207;32.078;34.818;2024-03-23T12:28:38;26.20;33.10
23618;DHT22;18207;32.078;34.818;2024-03-23T12:31:07;26.30;33.20
23618;DHT22;18207;32.078;34.818;2024-03-23T12:33:34;26.20;33.30
23618;DHT22;18207;32.078;34.818;2024-03-23T12:36:03;26.20;33.30
23618;DHT22;18207;32.078;34.818;2024-03-23T12:38:33;26.20;33.30
23618;DHT22;18207;32.078;34.818;2024-03-23T12:41:02;26.20;33.30
23618;DHT22;18207;32.078;34.818;2024-03-23T12:43:33;26.20;33.30
23618;DHT22;18207;32.078;34.818;2024-03-23T12:46:04;26.20;33.30
23618;DHT22;18207;32.078;34.818;2024-03-23T12:48:31;26.30;33.30
23618;DHT22;18207;32.078;34.818;2024-03-23T12:50:59;26.20;33.10
23618;DHT22;18207;32.078;34.818;2024-03-23T12:53:27;26.20;33.10
23618;DHT22;18207;32.078;34.818;2024-03-23T12:55:55;26.20;33.00
23618;DHT22;18207;32.078;34.818;2024-03-23T12:58:23;26.20;33.10
23618;DHT22;18207;32.078;34.818;2024-03-23T13:00:53;26.20;33.10
23618;DHT22;18207;32.078;34.818;2024-03-23T13:03:21;26.10;33.00
23618;DHT22;18207;32.078;34.818;2024-03-23T13:05:52;26.10;33.00
23618;DHT22;18207;32.078;34.818;2024-03-23T13:08:20;26.20;32.90
23618;DHT22;18207;32.078;34.818;2024-03-23T13:10:51;26.10;32.90
23618;DHT22;18207;32.078;34.818;2024-03-23T13:13:19;26.10;32.90
23618;DHT22;18207;32.078;34.818;2024-03-23T13:15:50;26.10;32.80
23618;DHT22;18207;32.078;34.818;2024-03-23T13:18:20;26.10;32.60
23618;DHT22;18207;32.078;34.818;2024-03-23T13:20:47;26.10;32.70
23618;DHT22;18207;32.078;34.818;2024-03-23T13:23:16;26.00;32.70
23618;DHT22;18207;32.078;34.818;2024-03-23T13:25:50;26.00;32.70
23618;DHT22;18207;32.078;34.818;2024-03-23T13:28:19;26.00;32.60
23618;DHT22;18207;32.078;34.818;2024-03-23T13:30:51;26.00;32.70
23618;DHT22;18207;32.078;34.818;2024-03-23T13:33:22;26.00;32.80
23618;DHT22;18207;32.078;34.818;2024-03-23T13:35:50;25.90;32.60
23618;DHT22;18207;32.078;34.818;2024-03-23T13:38:19;25.90;32.60
23618;DHT22;18207;32.078;34.818;2024-03-23T13:40:51;25.90;32.60
23618;DHT22;18207;32.078;34.818;2024-03-23T13:43:20;25.90;32.60
23618;DHT22;18207;32.078;34.818;2024-03-23T13:45:47;25.90;32.70
23618;DHT22;18207;32.078;34.818;2024-03-23T13:48:17;25.80;32.60
23618;DHT22;18207;32.078;34.818;2024-03-23T13:50:47;25.80;32.70
23618;DHT22;18207;32.078;34.818;2024-03-23T13:53:24;25.80;32.70
23618;DHT22;18207;32.078;34.818;2024-03-23T13:55:51;25.80;32.60
23618;DHT22;18207;32.078;34.818;2024-03-23T13:58:20;25.80;32.50
23618;DHT22;18207;32.078;34.818;2024-03-23T14:00:48;25.80;32.50
23618;DHT22;18207;32.078;34.818;2024-03-23T14:03:16;25.70;32.40
23618;DHT22;18207;32.078;34.818;2024-03-23T14:05:44;25.70;32.40
23618;DHT22;18207;32.078;34.818;2024-03-23T14:08:15;25.70;32.40
23618;DHT22;18207;32.078;34.818;2024-03-23T14:10:42;25.70;32.50
23618;DHT22;18207;32.078;34.818;2024-03-23T14:13:11;25.60;32.50
23618;DHT22;18207;32.078;34.818;2024-03-23T14:15:38;25.60;32.50
23618;DHT22;18207;32.078;34.818;2024-03-23T14:18:07;25.60;32.40
23618;DHT22;18207;32.078;34.818;2024-03-23T14:20:35;25.60;32.30
23618;DHT22;18207;32.078;34.818;2024-03-23T14:23:05;25.60;32.30
23618;DHT22;18207;32.078;34.818;2024-03-23T14:25:33;25.60;32.30
23618;DHT22;18207;32.078;34.818;2024-03-23T14:28:01;25.60;32.30
23618;DHT22;18207;32.078;34.818;2024-03-23T14:30:28;25.50;32.30
23618;DHT22;18207;32.078;34.818;2024-03-23T14:32:57;25.50;32.30
23618;DHT22;18207;32.078;34.818;2024-03-23T14:35:25;25.50;32.30
23618;DHT22;18207;32.078;34.818;2024-03-23T14:37:54;25.40;32.30
23618;DHT22;18207;32.078;34.818;2024-03-23T14:40:23;25.40;32.20
23618;DHT22;18207;32.078;34.818;2024-03-23T14:42:53;25.40;32.20
23618;DHT22;18207;32.078;34.818;2024-03-23T14:45:21;25.40;32.90
23618;DHT22;18207;32.078;34.818;2024-03-23T14:47:50;25.40;32.30
23618;DHT22;18207;32.078;34.818;2024-03-23T14:50:17;25.30;32.20
23618;DHT22;18207;32.078;34.818;2024-03-23T14:52:48;25.30;32.30
23618;DHT22;18207;32.078;34.818;2024-03-23T14:55:15;25.30;32.30
23618;DHT22;18207;32.078;34.818;2024-03-23T14:57:45;25.30;32.30
23618;DHT22;18207;32.078;34.818;2024-03-23T15:00:13;25.30;32.30
23618;DHT22;18207;32.078;34.818;2024-03-23T15:02:42;25.30;32.40
23618;DHT22;18207;32.078;34.818;2024-03-23T15:05:11;25.20;32.40
23618;DHT22;18207;32.078;34.818;2024-03-23T15:07:40;25.20;32.40
23618;DHT22;18207;32.078;34.818;2024-03-23T15:10:08;25.20;32.50
23618;DHT22;18207;32.078;34.818;2024-03-23T15:12:37;25.10;32.40
23618;DHT22;18207;32.078;34.818;2024-03-23T15:15:08;25.10;32.40
23618;DHT22;18207;32.078;34.818;2024-03-23T15:17:36;25.10;32.50
23618;DHT22;18207;32.078;34.818;2024-03-23T15:20:08;25.10;32.60
23618;DHT22;18207;32.078;34.818;2024-03-23T15:22:37;25.10;32.60
23618;DHT22;18207;32.078;34.818;2024-03-23T15:25:05;25.10;32.60
23618;DHT22;18207;32.078;34.818;2024-03-23T15:27:34;25.10;33.00
23618;DHT22;18207;32.078;34.818;2024-03-23T15:30:02;25.10;32.60
23618;DHT22;18207;32.078;34.818;2024-03-23T15:32:33;25.10;32.60
23618;DHT22;18207;32.078;34.818;2024-03-23T15:35:00;25.10;32.60
23618;DHT22;18207;32.078;34.818;2024-03-23T15:37:31;25.10;32.70
23618;DHT22;18207;32.078;34.818;2024-03-23T15:40:00;25.10;32.80
23618;DHT22;18207;32.078;34.818;2024-03-23T15:42:28;25.10;32.80
23618;DHT22;18207;32.078;34.818;2024-03-23T15:44:56;25.10;32.80
23618;DHT22;18207;32.078;34.818;2024-03-23T15:47:24;25.10;32.90
23618;DHT22;18207;32.078;34.818;2024-03-23T15:49:53;25.10;33.00
23618;DHT22;18207;32.078;34.818;2024-03-23T15:52:22;25.10;33.00
23618;DHT22;18207;32.078;34.818;2024-03-23T15:54:49;25.10;33.00
23618;DHT22;18207;32.078;34.818;2024-03-23T15:57:18;25.10;33.10
23618;DHT22;18207;32.078;34.818;2024-03-23T15:59:45;25.10;33.10
23618;DHT22;18207;32.078;34.818;2024-03-23T16:02:14;25.10;33.10
23618;DHT22;18207;32.078;34.818;2024-03-23T16:04:42;25.10;33.20
23618;DHT22;18207;32.078;34.818;2024-03-23T16:07:13;25.10;32.90
23618;DHT22;18207;32.078;34.818;2024-03-23T16:09:40;25.10;33.20
23618;DHT22;18207;32.078;34.818;2024-03-23T16:12:08;25.00;33.10
23618;DHT22;18207;32.078;34.818;2024-03-23T16:14:35;25.10;33.30
23618;DHT22;18207;32.078;34.818;2024-03-23T16:17:04;25.00;33.20
23618;DHT22;18207;32.078;34.818;2024-03-23T16:19:31;25.00;33.30